Time;durP1;ratioP1;P1;durP2;ratioP2;P2;SDS_P1;SDS_P2;PMS_P1;PMS_P2;Temp;Humidity;BMP_temperature;BMP_pressure;BME280_temperature;BME280_humidity;BME280_pressure;Samples;Min_cycle;Max_cycle;Signal;HPM_P1;HPM_P2
2022/02/12 00:00:39;;;;;;;;;65.67;53.33;;;;;6.03;64.03;103010.44;5108628;27;46248;-63
2022/02/12 00:03:05;;;;;;;;;68.33;51.67;;;;;6.02;63.82;103015.69;5106918;27;45349;-63
2022/02/12 00:05:31;;;;;;;;;69.33;53.00;;;;;6.02;64.21;103013.06;5107590;27;45444;-65
2022/02/12 00:07:58;;;;;;;;;61.33;49.67;;;;;6.01;64.09;103013.94;5109793;27;46166;-65
2022/02/12 00:10:26;;;;;;;;;70.00;54.67;;;;;5.95;63.58;103001.75;5102951;27;45454;-65
2022/02/12 00:12:54;;;;;;;;;68.33;53.00;;;;;5.96;64.50;103002.63;5108360;27;45406;-65
2022/02/12 00:15:20;;;;;;;;;69.33;52.33;;;;;5.93;64.02;103002.63;5109705;27;45457;-65
2022/02/12 00:17:46;;;;;;;;;74.00;54.00;;;;;5.91;63.66;102994.78;5112627;27;45276;-65
2022/02/12 00:20:13;;;;;;;;;68.33;51.33;;;;;5.92;64.27;103000.88;5089894;27;47777;-68
2022/02/12 00:22:40;;;;;;;;;74.00;54.33;;;;;5.88;64.12;102985.16;5107767;27;45408;-70
2022/02/12 00:25:06;;;;;;;;;69.33;56.33;;;;;5.89;63.67;102993.88;5083188;27;45505;-67
2022/02/12 00:27:32;;;;;;;;;68.00;53.00;;;;;5.85;63.84;102987.81;5105351;27;45392;-66
2022/02/12 00:29:57;;;;;;;;;75.67;54.33;;;;;5.82;63.94;102979.09;5108605;27;45291;-66
2022/02/12 00:32:23;;;;;;;;;68.00;52.33;;;;;5.79;64.51;102990.44;5109015;27;45366;-66
2022/02/12 00:34:49;;;;;;;;;69.67;52.67;;;;;5.74;64.47;102989.56;5105408;27;45749;-68
2022/02/12 00:37:15;;;;;;;;;68.67;50.33;;;;;5.73;64.59;102986.97;5106007;27;45475;-64
2022/02/12 00:39:40;;;;;;;;;77.00;56.00;;;;;5.67;63.93;102984.38;5104887;27;45501;-66
2022/02/12 00:42:06;;;;;;;;;80.33;57.67;;;;;5.64;64.83;102976.53;5109679;27;45436;-70
2022/02/12 00:44:32;;;;;;;;;68.67;53.67;;;;;5.59;64.85;102979.16;5089238;27;45615;-64
2022/02/12 00:46:58;;;;;;;;;68.00;55.00;;;;;5.53;65.02;102974.84;5107319;27;45690;-64
2022/02/12 00:49:23;;;;;;;;;71.33;54.33;;;;;5.51;64.61;102978.31;5105095;27;45922;-67
2022/02/12 00:51:50;;;;;;;;;69.67;55.00;;;;;5.49;64.65;102970.47;5105400;27;45509;-64
2022/02/12 00:54:15;;;;;;;;;68.33;56.00;;;;;5.46;64.95;102974.84;5109769;27;45552;-65
2022/02/12 00:56:41;;;;;;;;;76.00;54.00;;;;;5.44;64.83;102973.97;5109315;27;45495;-67
2022/02/12 00:59:06;;;;;;;;;80.00;58.00;;;;;5.42;65.60;102973.09;5088407;27;47535;-65
2022/02/12 01:01:33;;;;;;;;;66.00;53.00;;;;;5.43;64.70;102975.69;5106187;27;45476;-65
2022/02/12 01:03:59;;;;;;;;;64.00;50.67;;;;;5.46;65.05;102964.41;5105340;27;45508;-66
2022/02/12 01:06:24;;;;;;;;;69.00;53.33;;;;;5.45;65.48;102963.53;5108454;27;45717;-61
2022/02/12 01:08:50;;;;;;;;;72.33;54.00;;;;;5.47;65.56;102959.16;5105377;27;45611;-65
2022/02/12 01:11:15;;;;;;;;;67.67;45.67;;;;;5.45;64.93;102955.69;5104809;27;45824;-67
2022/02/12 01:13:43;;;;;;;;;67.00;51.67;;;;;5.47;65.25;102953.06;5103044;27;45464;-65
2022/02/12 01:16:09;;;;;;;;;65.00;51.33;;;;;5.45;64.87;102947.84;5093606;27;45424;-64
2022/02/12 01:18:35;;;;;;;;;67.67;52.33;;;;;5.46;64.88;102946.09;5112196;27;46321;-67
2022/02/12 01:21:00;;;;;;;;;63.67;53.67;;;;;5.44;65.04;102943.47;5109894;27;45688;-65
2022/02/12 01:23:27;;;;;;;;;77.00;54.00;;;;;5.45;64.65;102933.88;5104533;27;45516;-71
2022/02/12 01:25:52;;;;;;;;;71.33;52.67;;;;;5.47;64.95;102937.38;5111625;27;45498;-64
2022/02/12 01:28:19;;;;;;;;;72.67;56.33;;;;;5.46;65.02;102936.50;5111307;27;45543;-67
2022/02/12 01:30:45;;;;;;;;;72.67;53.67;;;;;5.47;65.48;102930.41;5107634;27;45434;-72
2022/02/12 01:33:11;;;;;;;;;78.00;55.00;;;;;5.46;64.59;102925.19;5090574;27;45498;-65
2022/02/12 01:35:37;;;;;;;;;70.00;51.33;;;;;5.45;65.14;102923.41;5108888;27;45564;-61
2022/02/12 01:38:02;;;;;;;;;68.00;52.00;;;;;5.45;65.37;102929.53;5108289;27;45524;-64
2022/02/12 01:40:28;;;;;;;;;62.00;48.33;;;;;5.43;65.21;102927.78;5110543;27;45698;-64
2022/02/12 01:42:54;;;;;;;;;70.67;55.67;;;;;5.44;65.35;102929.53;5110007;27;45555;-68
2022/02/12 01:45:20;;;;;;;;;69.67;51.00;;;;;5.43;65.24;102922.56;5110207;27;45750;-65
2022/02/12 01:47:45;;;;;;;;;69.67;53.33;;;;;5.41;65.63;102919.97;5106328;27;45439;-72
2022/02/12 01:50:12;;;;;;;;;66.00;52.67;;;;;5.38;65.13;102916.50;5107479;27;45792;-67
2022/02/12 01:52:39;;;;;;;;;64.67;51.00;;;;;5.38;65.15;102925.22;5111574;27;45499;-72
2022/02/12 01:55:06;;;;;;;;;70.00;52.00;;;;;5.38;65.12;102914.75;5107801;27;45391;-75
2022/02/12 01:57:32;;;;;;;;;70.00;52.33;;;;;5.41;65.49;102911.25;5109127;27;47604;-68
2022/02/12 01:59:58;;;;;;;;;67.33;52.00;;;;;5.42;65.21;102911.25;5108894;27;45495;-62
2022/02/12 02:02:24;;;;;;;;;59.33;48.00;;;;;5.46;64.66;102894.69;5104839;27;45379;-62
2022/02/12 02:04:50;;;;;;;;;63.00;50.00;;;;;5.50;64.85;102890.31;5111561;27;45358;-64
2022/02/12 02:07:16;;;;;;;;;63.67;51.00;;;;;5.54;65.46;102878.97;5110468;27;45331;-63
2022/02/12 02:09:43;;;;;;;;;65.33;51.00;;;;;5.54;65.08;102877.22;5110090;27;45425;-67
2022/02/12 02:12:09;;;;;;;;;64.67;48.00;;;;;5.54;65.26;102869.38;5088989;27;45533;-65
2022/02/12 02:14:41;;;;;;;;;53.67;44.33;;;;;5.60;64.82;102871.09;5107862;27;45472;-66
2022/02/12 02:17:09;;;;;;;;;46.00;40.75;;;;;5.62;64.81;102871.09;5108581;27;45533;-66
2022/02/12 02:19:36;;;;;;;;;36.75;33.75;;;;;5.64;65.20;102856.28;5107805;27;45595;-67
2022/02/12 02:22:02;;;;;;;;;30.25;30.25;;;;;5.65;64.36;102858.00;5112351;27;45716;-67
2022/02/12 02:24:29;;;;;;;;;45.75;41.50;;;;;5.66;64.30;102860.59;5110227;27;45563;-62
2022/02/12 02:27:13;;;;;;;;;49.00;39.75;;;;;5.67;64.19;102851.00;5090048;27;47730;-66
2022/02/12 02:29:41;;;;;;;;;44.25;36.50;;;;;5.69;64.86;102855.38;5107620;27;45453;-68
2022/02/12 02:32:08;;;;;;;;;38.25;29.00;;;;;5.70;64.60;102845.78;5106229;27;45636;-66
2022/02/12 02:34:34;;;;;;;;;51.50;37.75;;;;;5.69;63.77;102844.03;5091714;27;45436;-66
2022/02/12 02:36:59;;;;;;;;;39.25;22.25;;;;;5.68;64.09;102837.06;5109348;27;46545;-71
2022/02/12 02:39:25;;;;;;;;;40.50;31.50;;;;;5.68;64.21;102839.66;5109280;27;45409;-68
2022/02/12 02:41:51;;;;;;;;;37.00;30.00;;;;;5.67;64.62;102837.94;5106931;27;45706;-71
2022/02/12 02:44:16;;;;;;;;;31.00;26.25;;;;;5.66;64.57;102841.44;5106109;27;45394;-68
2022/02/12 02:46:42;;;;;;;;;47.75;31.75;;;;;5.66;64.66;102836.22;5110667;27;45893;-69
2022/02/12 02:49:07;;;;;;;;;40.00;31.50;;;;;5.65;63.61;102831.84;5110522;27;45375;-67
2022/02/12 02:57:01;;;;;;;;;34.50;28.75;;;;;5.63;63.33;102818.81;5106447;27;45899;-69
2022/02/12 02:59:27;;;;;;;;;34.00;29.00;;;;;5.61;64.04;102812.72;5111605;27;45488;-67
2022/02/12 03:01:56;;;;;;;;;29.50;27.00;;;;;5.59;63.67;102817.06;5108779;27;45466;-66
2022/02/12 03:04:22;;;;;;;;;28.25;23.50;;;;;5.55;64.08;102810.13;5108813;27;45567;-65
2022/02/12 03:06:48;;;;;;;;;27.25;21.75;;;;;5.53;63.64;102806.63;5104757;27;45496;-64
2022/02/12 03:09:13;;;;;;;;;24.75;21.75;;;;;5.52;63.29;102799.66;5110557;27;45602;-61
2022/02/12 03:11:39;;;;;;;;;28.75;24.75;;;;;5.52;63.63;102797.06;5110157;27;45465;-67
2022/02/12 03:14:05;;;;;;;;;24.25;20.75;;;;;5.53;62.67;102797.06;5105507;27;45506;-68
2022/02/12 03:16:31;;;;;;;;;29.75;22.00;;;;;5.53;62.56;102789.22;5107013;27;45508;-68
2022/02/12 03:18:58;;;;;;;;;26.00;19.75;;;;;5.51;63.22;102793.56;5110336;27;45442;-67
2022/02/12 03:21:24;;;;;;;;;28.00;21.50;;;;;5.51;63.68;102780.50;5106572;27;45487;-67
2022/02/12 03:23:49;;;;;;;;;22.25;17.50;;;;;5.50;63.22;102775.28;5093706;27;45447;-67
2022/02/12 03:26:15;;;;;;;;;25.50;21.50;;;;;5.51;63.47;102766.56;5089151;27;46833;-67
2022/02/12 03:28:43;;;;;;;;;22.75;17.25;;;;;5.52;63.39;102784.84;5107711;27;45464;-67
2022/02/12 03:31:09;;;;;;;;;27.25;19.25;;;;;5.53;63.37;102775.25;5104035;27;45566;-63
2022/02/12 03:33:34;;;;;;;;;23.75;16.75;;;;;5.49;62.94;102773.56;5110747;27;45431;-68
2022/02/12 03:36:00;;;;;;;;;29.50;24.75;;;;;5.46;63.85;102766.63;5109005;27;46032;-67
2022/02/12 03:38:28;;;;;;;;;30.50;24.25;;;;;5.46;63.62;102771.84;5104447;27;45501;-67
2022/02/12 03:40:58;;;;;;;;;23.50;16.75;;;;;5.46;63.41;102766.63;5093987;27;45319;-67
2022/02/12 03:43:24;;;;;;;;;23.25;19.00;;;;;5.45;63.28;102766.59;5081788;27;45462;-68
2022/02/12 03:45:50;;;;;;;;;34.00;28.75;;;;;5.45;63.07;102757.03;5081992;27;45415;-67
2022/02/12 03:48:16;;;;;;;;;34.25;30.75;;;;;5.43;63.79;102756.16;5077376;27;45292;-67
2022/02/12 03:50:42;;;;;;;;;37.00;32.25;;;;;5.40;62.70;102753.56;5082027;27;45564;-67
2022/02/12 03:53:09;;;;;;;;;33.00;26.50;;;;;5.39;64.32;102759.69;5077594;27;45384;-68
2022/02/12 03:55:39;;;;;;;;;30.75;22.00;;;;;5.37;63.31;102747.47;5082085;28;46285;-67
2022/02/12 03:58:07;;;;;;;;;38.00;32.00;;;;;5.32;63.68;102748.38;5077335;27;45428;-67
2022/02/12 04:00:34;;;;;;;;;34.00;26.00;;;;;5.27;63.38;102742.31;5082032;28;45303;-67
2022/02/12 04:03:00;;;;;;;;;38.50;29.75;;;;;5.23;63.48;102742.34;5081999;27;45308;-68
2022/02/12 04:05:26;;;;;;;;;35.50;29.00;;;;;5.17;63.83;102734.53;5081898;28;45452;-68
2022/02/12 04:07:52;;;;;;;;;41.50;33.00;;;;;5.11;63.91;102748.47;5081959;27;45621;-67
2022/02/12 04:10:18;;;;;;;;;43.75;31.00;;;;;5.04;63.66;102741.53;5081783;27;45443;-67
2022/02/12 04:12:45;;;;;;;;;41.50;38.00;;;;;5.02;64.17;102738.94;5081512;27;45501;-68
2022/02/12 04:15:12;;;;;;;;;41.75;33.25;;;;;5.02;64.33;102738.94;5081807;28;45390;-68
2022/02/12 04:17:38;;;;;;;;;39.00;35.75;;;;;5.00;63.74;102727.63;5093151;27;45327;-68
2022/02/12 04:20:07;;;;;;;;;44.00;37.75;;;;;4.97;64.16;102732.84;5092977;27;45349;-68
2022/02/12 04:22:34;;;;;;;;;45.00;38.00;;;;;4.95;64.27;102724.16;5086854;27;45291;-68
2022/02/12 04:25:00;;;;;;;;;45.00;37.75;;;;;4.93;64.07;102722.44;5081248;28;45410;-67
2022/02/12 04:27:27;;;;;;;;;42.00;35.00;;;;;4.90;64.16;102719.88;5081415;28;45319;-67
2022/02/12 04:29:52;;;;;;;;;43.75;33.00;;;;;4.88;64.97;102713.75;5081480;27;45313;-67
2022/02/12 04:32:20;;;;;;;;;38.75;31.00;;;;;4.84;64.33;102714.66;5081337;28;46348;-67
2022/02/12 04:34:46;;;;;;;;;40.75;33.25;;;;;4.78;64.67;102709.44;5081581;27;45293;-68
2022/02/12 04:37:12;;;;;;;;;39.25;37.00;;;;;4.73;65.20;102712.94;5081261;27;45318;-67
2022/02/12 04:39:38;;;;;;;;;40.25;36.75;;;;;4.66;65.13;102706.03;5089337;27;45249;-67
2022/02/12 04:42:09;;;;;;;;;35.75;33.50;;;;;4.59;64.52;102704.31;5084804;27;45287;-67
2022/02/12 04:44:35;;;;;;;;;36.75;32.00;;;;;4.54;65.06;102710.41;5081262;27;46567;-67
2022/02/12 04:47:00;;;;;;;;;42.00;31.00;;;;;4.47;65.60;102713.00;5080875;27;45291;-68
2022/02/12 04:49:26;;;;;;;;;38.50;37.75;;;;;4.43;64.83;102715.66;5073499;27;45294;-67
2022/02/12 04:51:51;;;;;;;;;36.75;35.25;;;;;4.41;66.04;102715.63;5083927;27;45485;-67
2022/02/12 04:54:17;;;;;;;;;47.50;36.75;;;;;4.40;64.97;102710.41;5081152;28;45913;-67
2022/02/12 04:56:43;;;;;;;;;46.50;39.75;;;;;4.39;65.73;102708.69;5080789;27;45261;-67
2022/02/12 04:59:09;;;;;;;;;47.50;34.25;;;;;4.41;65.22;102709.53;5081135;28;45301;-67
2022/02/12 05:01:34;;;;;;;;;45.50;35.25;;;;;4.42;65.65;102704.34;5081038;28;45406;-68
2022/02/12 05:04:00;;;;;;;;;40.50;38.00;;;;;4.42;65.30;102699.13;5081045;28;45386;-68
2022/02/12 05:06:25;;;;;;;;;24.25;13.25;;;;;4.43;65.92;102697.38;5081138;28;45399;-67
2022/02/12 05:08:51;;;;;;;;;43.25;37.25;;;;;4.41;65.72;102699.97;5080975;28;45587;-68
2022/02/12 05:11:16;;;;;;;;;44.50;38.00;;;;;4.40;65.38;102700.84;5080811;28;45497;-68
2022/02/12 05:13:42;;;;;;;;;43.25;37.00;;;;;4.35;65.86;102692.19;5080827;27;46084;-68
2022/02/12 05:16:08;;;;;;;;;42.25;33.00;;;;;4.37;65.06;102689.56;5080874;28;45217;-68
2022/02/12 05:18:33;;;;;;;;;36.75;32.25;;;;;4.34;65.46;102693.03;5082315;27;45496;-67
2022/02/12 05:20:59;;;;;;;;;42.50;30.50;;;;;4.34;65.97;102698.25;5085063;27;45434;-68
2022/02/12 05:23:25;;;;;;;;;40.50;33.75;;;;;4.32;65.64;102689.56;5085806;27;45409;-68
2022/02/12 05:25:50;;;;;;;;;38.50;29.50;;;;;4.32;65.51;102691.31;5080794;28;45315;-68
2022/02/12 05:28:16;;;;;;;;;47.75;37.25;;;;;4.31;65.64;102684.34;5080854;28;45316;-68
2022/02/12 05:30:43;;;;;;;;;43.25;30.75;;;;;4.29;65.90;102681.75;5080740;28;45420;-68
2022/02/12 05:33:09;;;;;;;;;43.25;34.75;;;;;4.27;65.65;102683.50;5080569;28;45420;-68
2022/02/12 05:35:34;;;;;;;;;41.00;36.25;;;;;4.19;66.25;102672.22;5080654;27;45328;-68
2022/02/12 05:38:00;;;;;;;;;38.25;34.75;;;;;4.15;65.71;102676.56;5079761;28;45351;-68
2022/02/12 05:40:25;;;;;;;;;37.50;34.00;;;;;4.09;65.77;102670.47;5092412;27;45225;-67
2022/02/12 05:42:51;;;;;;;;;42.50;36.50;;;;;4.06;65.95;102676.56;5080164;28;45466;-68
2022/02/12 05:45:17;;;;;;;;;42.00;32.25;;;;;4.02;65.83;102661.78;5080526;28;45355;-67
2022/02/12 05:47:42;;;;;;;;;40.00;40.00;;;;;4.00;66.37;102658.31;5080309;28;45331;-68
2022/02/12 05:50:09;;;;;;;;;52.00;40.67;;;;;4.02;66.14;102659.19;5080496;28;45235;-68
2022/02/12 05:52:36;;;;;;;;;47.25;38.75;;;;;4.02;66.52;102659.19;5080505;28;45286;-68
2022/02/12 05:55:02;;;;;;;;;41.25;36.00;;;;;4.02;65.84;102651.34;5062286;28;45288;-68
2022/02/12 05:57:28;;;;;;;;;44.50;38.75;;;;;4.05;65.77;102653.97;5080538;27;45315;-68
2022/02/12 05:59:53;;;;;;;;;36.00;31.50;;;;;4.06;66.50;102649.63;5080627;28;45467;-68
2022/02/12 06:02:19;;;;;;;;;52.00;41.00;;;;;4.06;65.74;102649.63;5081819;27;45356;-68
2022/02/12 06:04:44;;;;;;;;;47.00;38.00;;;;;4.04;65.55;102644.41;5083726;27;45752;-68
2022/02/12 06:07:10;;;;;;;;;42.00;32.25;;;;;4.02;65.96;102643.53;5084010;27;45304;-68
2022/02/12 06:09:36;;;;;;;;;37.25;32.25;;;;;4.01;66.31;102648.75;5083647;27;45296;-68
2022/02/12 06:12:03;;;;;;;;;40.25;33.50;;;;;3.99;66.17;102643.53;5083333;27;46237;-68
2022/02/12 06:14:28;;;;;;;;;41.00;31.50;;;;;3.98;66.12;102638.34;5083586;27;45375;-68
2022/02/12 06:16:57;;;;;;;;;33.75;32.50;;;;;3.98;65.88;102639.22;5089268;27;45541;-68
2022/02/12 06:19:22;;;;;;;;;44.75;33.50;;;;;3.99;66.40;102630.50;5100675;27;45501;-68
2022/02/12 06:21:48;;;;;;;;;41.75;34.50;;;;;4.00;66.44;102628.78;5085019;27;46006;-68
2022/02/12 06:24:13;;;;;;;;;41.50;31.75;;;;;3.97;66.39;102629.66;5087301;27;45306;-68
2022/02/12 06:26:43;;;;;;;;;45.00;34.00;;;;;3.98;66.21;102625.31;5083372;28;45380;-68
2022/02/12 06:29:10;;;;;;;;;43.50;34.00;;;;;3.99;66.55;102625.28;5083207;27;45450;-69
2022/02/12 06:31:36;;;;;;;;;27.00;26.75;;;;;3.99;66.42;102620.06;5083458;27;46151;-68
2022/02/12 06:34:02;;;;;;;;;31.50;28.00;;;;;4.00;65.53;102618.34;5082331;27;45330;-68
2022/02/12 06:36:27;;;;;;;;;36.25;32.25;;;;;4.00;66.26;102611.38;5093841;27;45447;-68
2022/02/12 06:38:53;;;;;;;;;39.00;29.25;;;;;3.98;66.37;102607.91;5085420;27;45294;-68
2022/02/12 06:41:18;;;;;;;;;26.25;20.00;;;;;3.95;66.23;102618.38;5093271;27;45574;-69
2022/02/12 06:43:44;;;;;;;;;35.00;29.25;;;;;3.95;66.14;102615.75;5083162;27;45485;-69
2022/02/12 06:46:10;;;;;;;;;26.50;25.00;;;;;3.93;66.53;102612.25;5087365;27;45504;-68
2022/02/12 06:48:36;;;;;;;;;40.75;30.00;;;;;3.93;66.44;102613.13;5101615;27;45434;-68
2022/02/12 06:51:02;;;;;;;;;44.67;38.33;;;;;3.93;66.25;102613.13;5093909;27;45343;-68
2022/02/12 06:53:28;;;;;;;;;76.00;60.33;;;;;3.91;66.42;102601.84;5074079;28;45389;-68
2022/02/12 06:55:53;;;;;;;;;28.25;24.75;;;;;3.94;66.46;102608.78;5096935;27;46431;-68
2022/02/12 06:58:19;;;;;;;;;31.25;24.50;;;;;3.95;65.80;102609.66;5091920;27;45331;-68
2022/02/12 07:00:45;;;;;;;;;32.75;25.75;;;;;3.95;65.98;102617.47;5093241;27;45557;-67
2022/02/12 07:03:11;;;;;;;;;30.50;24.00;;;;;3.93;66.78;102618.34;5080823;27;45527;-66
2022/02/12 07:05:36;;;;;;;;;38.75;27.50;;;;;3.95;66.25;102614.84;5086846;27;45849;-65
2022/02/12 07:08:03;;;;;;;;;34.50;27.00;;;;;3.95;65.27;102609.66;5098147;27;45244;-64
2022/02/12 07:10:31;;;;;;;;;32.25;21.75;;;;;3.95;65.77;102612.25;5095949;27;46380;-65
2022/02/12 07:12:56;;;;;;;;;30.25;23.50;;;;;3.94;65.94;102616.59;5082272;28;45382;-63
2022/02/12 07:15:22;;;;;;;;;45.00;37.67;;;;;3.91;65.80;102614.88;5082726;27;45346;-63
2022/02/12 07:17:47;;;;;;;;;46.75;31.25;;;;;3.92;65.79;102615.75;5085606;27;45342;-63
2022/02/12 07:20:13;;;;;;;;;35.25;26.50;;;;;3.90;65.83;102612.28;5090813;27;45391;-63
2022/02/12 07:22:40;;;;;;;;;41.25;29.25;;;;;3.89;65.60;102611.41;5083850;27;45537;-63
2022/02/12 07:25:08;;;;;;;;;36.25;28.00;;;;;3.88;65.75;102608.81;5082354;28;45253;-64
2022/02/12 07:27:34;;;;;;;;;34.75;29.50;;;;;3.89;66.43;102610.53;5082167;27;45580;-64
2022/02/12 07:30:00;;;;;;;;;29.00;24.50;;;;;3.89;65.96;102618.38;5082345;28;46590;-64
2022/02/12 07:32:26;;;;;;;;;28.50;24.75;;;;;3.90;65.92;102607.94;5082286;27;45335;-64
2022/02/12 07:34:51;;;;;;;;;37.00;30.25;;;;;3.91;65.67;102614.88;5082429;28;45385;-62
2022/02/12 07:37:16;;;;;;;;;38.50;28.50;;;;;3.93;65.88;102614.88;5082163;27;45308;-65
2022/02/12 07:39:42;;;;;;;;;31.00;27.00;;;;;3.97;65.65;102610.53;5089058;27;45341;-63
2022/02/12 07:42:07;;;;;;;;;30.00;25.75;;;;;3.97;65.64;102603.56;5085655;27;45437;-63
2022/02/12 07:44:34;;;;;;;;;26.00;20.50;;;;;3.99;66.09;102609.66;5082310;27;45375;-63
2022/02/12 07:47:00;;;;;;;;;25.50;23.50;;;;;4.01;65.00;102617.47;5081925;27;45263;-63
2022/02/12 07:49:25;;;;;;;;;27.75;22.00;;;;;3.99;65.78;102617.47;5081894;28;45308;-63
2022/02/12 07:51:51;;;;;;;;;23.75;17.25;;;;;4.05;65.14;102611.38;5081694;27;45391;-63
2022/02/12 07:54:16;;;;;;;;;36.00;20.50;;;;;4.10;65.36;102614.81;5082115;28;45360;-63
2022/02/12 07:56:42;;;;;;;;;29.25;26.25;;;;;4.15;66.25;102613.09;5081895;27;45315;-63
2022/02/12 07:59:07;;;;;;;;;33.25;24.75;;;;;4.22;65.93;102608.72;5081806;28;45366;-63
2022/02/12 08:01:33;;;;;;;;;30.25;23.75;;;;;4.25;65.34;102600.88;5081764;27;45454;-63
2022/02/12 08:03:59;;;;;;;;;34.25;23.75;;;;;4.29;65.40;102600.88;5082161;28;45208;-64
2022/02/12 08:09:09;;;;;;;;;27.00;21.25;;;;;4.43;64.89;102614.75;5092677;27;45614;-64
2022/02/12 08:11:37;;;;;;;;;25.25;17.25;;;;;4.47;65.19;102619.06;5095123;27;45402;-64
2022/02/12 08:14:02;;;;;;;;;27.00;19.25;;;;;4.53;65.28;102623.41;5077358;27;45441;-63
2022/02/12 08:16:29;;;;;;;;;28.75;19.75;;;;;4.57;65.29;102619.91;5089223;27;45523;-64
2022/02/12 08:18:54;;;;;;;;;28.25;25.50;;;;;4.63;64.91;102616.41;5092678;27;45981;-64
2022/02/12 08:21:20;;;;;;;;;28.25;22.50;;;;;4.68;64.97;102612.91;5088142;27;45318;-64
2022/02/12 08:23:45;;;;;;;;;32.00;22.25;;;;;4.72;64.98;102609.38;5086224;27;45395;-64
2022/02/12 08:26:11;;;;;;;;;23.00;19.75;;;;;4.79;64.50;102614.59;5087565;27;45234;-64
2022/02/12 08:28:37;;;;;;;;;28.75;21.50;;;;;4.85;64.25;102610.19;5085821;27;45363;-64
2022/02/12 08:31:03;;;;;;;;;20.50;18.00;;;;;4.94;63.53;102609.28;5095627;27;45304;-64
2022/02/12 08:33:29;;;;;;;;;24.00;20.50;;;;;4.99;63.93;102605.78;5092257;27;45372;-64
2022/02/12 08:35:55;;;;;;;;;30.50;19.00;;;;;5.06;63.50;102604.00;5087424;27;45386;-64
2022/02/12 08:38:22;;;;;;;;;29.50;20.75;;;;;5.10;63.01;102597.84;5085782;27;46084;-64
2022/02/12 08:40:48;;;;;;;;;22.50;17.50;;;;;5.16;63.48;102607.41;5093401;27;45310;-64
2022/02/12 08:43:14;;;;;;;;;32.75;24.00;;;;;5.22;63.86;102597.78;5091615;27;45470;-64
2022/02/12 08:45:39;;;;;;;;;28.00;24.50;;;;;5.27;62.75;102595.97;5087487;27;45520;-65
2022/02/12 08:48:07;;;;;;;;;22.75;20.00;;;;;5.36;62.59;102594.19;5086363;27;45441;-64
2022/02/12 08:50:34;;;;;;;;;35.50;27.00;;;;;5.45;62.76;102588.88;5085837;27;45219;-64
2022/02/12 08:52:59;;;;;;;;;33.00;24.00;;;;;5.52;63.48;102591.41;5086802;27;45482;-64
2022/02/12 08:55:25;;;;;;;;;24.75;20.50;;;;;5.55;63.32;102595.78;5087660;27;45418;-64
2022/02/12 08:57:50;;;;;;;;;25.25;21.00;;;;;5.59;62.13;102587.88;5101518;27;46006;-64
2022/02/12 09:00:16;;;;;;;;;18.00;12.00;;;;;5.64;62.00;102582.63;5112543;27;45339;-64
2022/02/12 09:02:42;;;;;;;;;13.00;12.00;;;;;5.69;60.71;102578.22;5109087;27;45333;-64
2022/02/12 09:05:08;;;;;;;;;9.50;9.50;;;;;5.72;61.03;102580.81;5104285;27;45382;-64
2022/02/12 09:07:33;;;;;;;;;14.75;10.00;;;;;5.78;60.89;102572.03;5111787;27;45464;-64
2022/02/12 09:10:01;;;;;;;;;11.50;9.75;;;;;5.83;60.58;102578.06;5103349;27;45342;-65
2022/02/12 09:12:27;;;;;;;;;8.00;8.00;;;;;5.91;60.41;102578.88;5108501;27;45271;-64
2022/02/12 09:14:53;;;;;;;;;14.25;10.00;;;;;6.00;60.29;102573.56;5107289;27;45332;-64
2022/02/12 09:17:19;;;;;;;;;10.25;9.50;;;;;6.04;59.44;102572.66;5108110;27;46000;-64
2022/02/12 09:19:44;;;;;;;;;10.50;6.50;;;;;6.11;59.46;102566.47;5108704;27;45553;-64
2022/02/12 09:22:10;;;;;;;;;14.75;9.00;;;;;6.13;59.49;102564.69;5111646;27;45346;-65
2022/02/12 09:24:36;;;;;;;;;14.25;11.00;;;;;6.17;60.23;102562.06;5094524;27;45810;-64
2022/02/12 09:27:02;;;;;;;;;14.50;11.00;;;;;6.26;59.36;102557.56;5111237;27;45381;-63
2022/02/12 09:29:27;;;;;;;;;14.00;10.75;;;;;6.30;59.72;102548.78;5092203;27;45426;-64
2022/02/12 09:31:53;;;;;;;;;13.00;10.00;;;;;6.41;59.18;102561.75;5110891;27;45306;-64
2022/02/12 09:34:18;;;;;;;;;14.00;11.50;;;;;6.48;59.08;102550.34;5106797;27;45714;-65
2022/02/12 09:36:44;;;;;;;;;16.75;14.25;;;;;6.56;58.63;102558.09;5113005;27;45683;-63
2022/02/12 09:39:10;;;;;;;;;18.00;14.75;;;;;6.63;59.08;102542.22;5114506;27;46295;-65
2022/02/12 09:41:36;;;;;;;;;14.25;10.75;;;;;6.70;58.48;102545.63;5114587;27;45456;-64
2022/02/12 09:44:01;;;;;;;;;13.50;13.00;;;;;6.74;58.20;102544.72;5110753;27;45431;-64
2022/02/12 09:47:01;;;;;;;;;12.50;11.25;;;;;6.77;58.28;102547.28;5110906;27;45547;-64
2022/02/12 09:49:27;;;;;;;;;14.00;10.50;;;;;6.81;57.56;102538.50;5108148;27;45515;-64
2022/02/12 09:51:53;;;;;;;;;20.50;17.25;;;;;6.83;57.72;102528.88;5092231;27;45380;-64
2022/02/12 09:54:20;;;;;;;;;13.75;13.25;;;;;6.88;57.45;102524.44;5112422;27;45498;-64
2022/02/12 09:56:45;;;;;;;;;17.75;11.25;;;;;6.93;57.40;102526.97;5108334;27;45476;-64
2022/02/12 09:59:11;;;;;;;;;11.75;8.50;;;;;6.96;57.02;102534.81;5113519;27;45404;-64
2022/02/12 10:01:40;;;;;;;;;15.50;11.50;;;;;6.99;56.64;102527.75;5113377;27;45555;-64
2022/02/12 10:04:21;;;;;;;;;10.25;9.00;;;;;7.03;56.17;102522.44;5110465;27;45314;-63
2022/02/12 10:06:47;;;;;;;;;13.25;9.75;;;;;7.05;55.94;102516.31;5113031;27;45438;-64
2022/02/12 10:09:14;;;;;;;;;13.75;9.50;;;;;7.08;55.71;102515.38;5093524;27;45504;-64
2022/02/12 10:11:44;;;;;;;;;10.50;8.00;;;;;7.08;55.11;102518.88;5108212;27;45484;-64
2022/02/12 10:14:19;;;;;;;;;12.75;9.25;;;;;7.09;55.01;102517.09;5108399;27;45562;-64
2022/02/12 10:16:55;;;;;;;;;14.25;9.00;;;;;7.14;54.67;102516.16;5111183;27;45184;-63
2022/02/12 10:19:47;;;;;;;;;10.25;9.00;;;;;7.18;54.71;102509.09;5110976;27;45322;-64
2022/02/12 10:22:17;;;;;;;;;8.50;8.50;;;;;7.23;55.07;102504.66;5107730;27;45669;-63
2022/02/12 10:24:50;;;;;;;;;10.75;9.25;;;;;7.31;54.21;102494.03;5112167;27;45354;-63
2022/02/12 10:27:17;;;;;;;;;10.25;9.50;;;;;7.35;54.33;102488.72;5112521;27;45254;-64
2022/02/12 10:29:47;;;;;;;;;8.25;7.00;;;;;7.38;53.75;102486.03;5108746;27;45428;-63
2022/02/12 10:32:18;;;;;;;;;10.25;7.00;;;;;7.38;53.42;102475.53;5091580;27;45280;-63
2022/02/12 10:34:45;;;;;;;;;13.25;10.00;;;;;7.42;53.56;102471.97;5112582;27;45410;-64
2022/02/12 10:37:16;;;;;;;;;17.00;9.75;;;;;7.48;53.56;102477.09;5112142;27;45365;-63
2022/02/12 10:39:59;;;;;;;;;15.00;9.00;;;;;7.55;53.12;102467.38;5110432;27;45542;-63
2022/02/12 10:42:27;;;;;;;;;12.25;8.00;;;;;7.57;52.91;102458.56;5102388;27;45262;-63
2022/02/12 10:44:54;;;;;;;;;7.75;5.75;;;;;7.61;52.20;102462.00;5113066;27;45209;-64
2022/02/12 10:47:20;;;;;;;;;6.75;6.00;;;;;7.67;52.29;102475.00;5094178;27;45579;-64
2022/02/12 10:49:47;;;;;;;;;6.75;5.50;;;;;7.71;51.28;102470.56;5105398;27;45456;-64
2022/02/12 10:52:13;;;;;;;;;5.75;5.75;;;;;7.70;51.28;102469.69;5108534;27;45390;-63
2022/02/12 10:54:44;;;;;;;;;7.75;6.75;;;;;7.73;51.34;102455.66;5094177;27;45362;-65
2022/02/12 10:57:09;;;;;;;;;6.25;5.00;;;;;7.73;50.85;102467.00;5109252;27;45465;-63
2022/02/12 10:59:38;;;;;;;;;7.75;6.00;;;;;7.76;50.97;102473.97;5110934;27;45388;-64
2022/02/12 11:02:15;;;;;;;;;8.50;5.25;;;;;7.77;50.61;102483.56;5107322;27;45388;-72
2022/02/12 11:04:42;;;;;;;;;7.75;6.50;;;;;7.76;50.40;102473.97;5111286;27;45440;-65
2022/02/12 11:07:13;;;;;;;;;11.75;7.00;;;;;7.75;50.41;102477.47;5109586;27;45545;-64
2022/02/12 11:09:39;;;;;;;;;7.75;7.00;;;;;7.77;50.57;102467.81;5109367;27;45387;-66
2022/02/12 11:12:06;;;;;;;;;7.25;6.50;;;;;7.79;50.61;102464.25;5110728;27;45324;-68
2022/02/12 11:14:33;;;;;;;;;12.50;6.50;;;;;7.84;50.75;102451.06;5094369;27;45279;-68
2022/02/12 11:17:02;;;;;;;;;7.00;6.75;;;;;7.91;50.80;102447.41;5109523;27;45342;-80
2022/02/12 11:19:29;;;;;;;;;6.00;6.00;;;;;7.98;50.29;102451.66;5119007;27;45375;-69
2022/02/12 11:21:55;;;;;;;;;8.00;6.00;;;;;8.02;50.11;102439.31;5132242;27;45571;-69
2022/02/12 11:24:40;;;;;;;;;11.00;6.75;;;;;8.06;50.19;102431.34;5110145;27;45592;-69